Terminal Aerodrome Forecast
Issued by NWS Binghamton, NY

Home | Current Version | Previous Version | Text Only | Print | Product List | Glossary On
Versions: 1 2 3 4 5 6 7 8 9 10 11 12 13 14 15 16 17 18
000
FTUS41 KBGM 301726
TAFSYR
TAF
KSYR 301726Z 3018/0118 VRB04KT P6SM BKN050
     FM010000 11004KT P6SM SCT050 BKN150
     FM010900 10007KT P6SM -RA OVC040
     FM011300 12011KT P6SM -RA OVC025=

USA.gov is the U.S. government's official web portal to all federal, state and local government web resources and services.